Time;durP1;ratioP1;P1;durP2;ratioP2;P2;SDS_P1;SDS_P2;PMS_P1;PMS_P2;Temp;Humidity;BMP_temperature;BMP_pressure;BME280_temperature;BME280_humidity;BME280_pressure;Samples;Min_cycle;Max_cycle;Signal;HPM_P1;HPM_P2
2023/06/20 00:01:18;;;;;;;1.60;1.60;;;24.90;99.90;;;;;;5053136;28;20200;-63
2023/06/20 00:03:45;;;;;;;1.80;1.70;;;24.80;99.90;;;;;;5053247;28;20712;-64
2023/06/20 00:06:12;;;;;;;1.58;1.55;;;24.60;99.90;;;;;;5053595;28;20583;-63
2023/06/20 00:08:39;;;;;;;1.50;1.50;;;24.60;99.90;;;;;;5053148;28;20314;-63
2023/06/20 00:11:06;;;;;;;1.63;1.60;;;24.50;99.90;;;;;;5053151;28;20211;-64
2023/06/20 00:13:36;;;;;;;5.57;5.38;;;24.50;99.90;;;;;;5053503;28;20223;-63
2023/06/20 00:16:03;;;;;;;2.08;1.90;;;24.30;99.90;;;;;;5053381;28;20239;-64
2023/06/20 00:18:30;;;;;;;1.60;1.60;;;24.20;99.90;;;;;;5053218;28;20232;-64
2023/06/20 00:20:57;;;;;;;1.80;1.70;;;24.10;99.90;;;;;;5052851;28;20211;-63
2023/06/20 00:23:24;;;;;;;1.90;1.80;;;24.10;99.90;;;;;;5052924;28;20260;-63
2023/06/20 00:25:52;;;;;;;1.58;1.58;;;24.10;99.90;;;;;;5052753;28;20306;-63
2023/06/20 00:28:18;;;;;;;1.80;1.70;;;24.10;99.90;;;;;;5053011;28;20224;-62
2023/06/20 00:30:47;;;;;;;3.72;3.63;;;24.00;99.90;;;;;;5052623;28;20295;-63
2023/06/20 00:33:13;;;;;;;1.45;1.45;;;23.90;99.90;;;;;;5053678;28;20203;-63
2023/06/20 00:35:40;;;;;;;1.40;1.40;;;23.80;99.90;;;;;;5053470;28;20250;-65
2023/06/20 00:38:07;;;;;;;1.65;1.65;;;23.90;99.90;;;;;;5052881;28;20228;-63
2023/06/20 00:40:34;;;;;;;2.15;2.05;;;23.90;99.90;;;;;;5052715;28;20353;-62
2023/06/20 00:43:01;;;;;;;1.67;1.67;;;23.80;99.90;;;;;;5052845;28;20238;-64
2023/06/20 00:45:30;;;;;;;1.77;1.70;;;23.80;99.90;;;;;;5052932;28;20210;-64
2023/06/20 00:48:00;;;;;;;1.70;1.60;;;23.80;99.90;;;;;;5052861;28;20287;-63
2023/06/20 00:50:28;;;;;;;5.45;5.25;;;23.80;99.90;;;;;;5052650;28;20200;-64
2023/06/20 00:53:00;;;;;;;5.25;5.05;;;23.80;99.90;;;;;;5052646;28;20203;-64
2023/06/20 00:55:28;;;;;;;2.20;2.10;;;23.70;99.90;;;;;;5052510;28;20681;-64
2023/06/20 00:57:58;;;;;;;2.00;1.90;;;23.70;99.90;;;;;;5052383;28;20207;-63
2023/06/20 01:00:25;;;;;;;3.47;3.33;;;23.70;99.90;;;;;;5054744;28;20204;-62
2023/06/20 01:02:54;;;;;;;1.83;1.73;;;23.70;99.90;;;;;;5055388;28;20233;-64
2023/06/20 01:05:26;;;;;;;4.00;3.80;;;23.60;99.90;;;;;;5053955;28;20214;-64
2023/06/20 01:08:00;;;;;;;1.77;1.67;;;23.60;99.90;;;;;;5053875;28;20218;-63
2023/06/20 01:10:37;;;;;;;2.90;2.80;;;23.60;99.90;;;;;;5052660;28;20235;-65
2023/06/20 01:13:12;;;;;;;4.60;4.40;;;23.60;99.90;;;;;;5053368;28;20207;-64
2023/06/20 01:15:48;;;;;;;16.25;15.60;;;23.60;99.90;;;;;;5052364;28;20322;-63
2023/06/20 01:18:25;;;;;;;4.32;4.13;;;23.50;99.90;;;;;;5052798;28;20314;-63
2023/06/20 01:20:59;;;;;;;1.48;1.48;;;23.50;99.90;;;;;;5052138;28;20231;-64
2023/06/20 01:23:33;;;;;;;2.25;2.15;;;23.60;99.90;;;;;;5051896;28;20210;-65
2023/06/20 01:26:05;;;;;;;2.53;2.42;;;23.50;99.90;;;;;;5052316;28;20199;-63
2023/06/20 01:28:39;;;;;;;6.78;6.50;;;23.50;99.90;;;;;;5052450;28;20318;-65
2023/06/20 01:31:10;;;;;;;2.13;2.03;;;23.60;99.90;;;;;;5053525;28;20218;-64
2023/06/20 01:33:45;;;;;;;1.95;1.85;;;23.60;99.90;;;;;;5055013;28;20295;-63
2023/06/20 01:36:15;;;;;;;1.90;1.80;;;23.60;99.90;;;;;;5051934;28;20226;-65
2023/06/20 01:38:47;;;;;;;6.30;6.10;;;23.50;99.90;;;;;;5064143;28;20255;-65
2023/06/20 01:41:17;;;;;;;1.88;1.83;;;23.50;99.90;;;;;;5067395;28;20214;-62
2023/06/20 01:43:47;;;;;;;2.22;2.13;;;23.60;99.90;;;;;;5059050;28;20268;-64
2023/06/20 01:46:16;;;;;;;2.38;2.28;;;23.60;99.90;;;;;;5051857;28;20223;-62
2023/06/20 01:48:44;;;;;;;1.58;1.58;;;23.60;99.90;;;;;;5051581;28;20224;-63
2023/06/20 01:51:12;;;;;;;1.90;1.80;;;23.50;99.90;;;;;;5051266;28;20299;-63
2023/06/20 01:53:40;;;;;;;1.52;1.52;;;23.50;99.90;;;;;;5051454;28;20208;-64
2023/06/20 01:56:10;;;;;;;1.80;1.70;;;23.50;99.90;;;;;;5051443;28;20227;-64
2023/06/20 01:58:40;;;;;;;2.88;2.67;;;23.60;99.90;;;;;;5051396;28;20220;-65
2023/06/20 02:01:08;;;;;;;3.08;2.97;;;23.50;99.90;;;;;;5051405;28;20211;-64
2023/06/20 02:03:36;;;;;;;2.90;2.80;;;23.50;99.90;;;;;;5051459;28;20344;-65
2023/06/20 02:06:04;;;;;;;1.75;1.75;;;23.50;99.90;;;;;;5051512;28;20235;-64
2023/06/20 02:08:34;;;;;;;4.55;4.40;;;23.50;99.90;;;;;;5051067;28;20341;-62
2023/06/20 02:11:02;;;;;;;2.28;2.17;;;23.40;99.90;;;;;;5057270;28;20311;-63
2023/06/20 02:13:32;;;;;;;5.50;5.20;;;23.40;99.90;;;;;;5051259;28;20203;-64
2023/06/20 02:16:00;;;;;;;2.65;2.55;;;23.30;99.90;;;;;;5051040;28;20616;-63
2023/06/20 02:18:31;;;;;;;1.80;1.75;;;23.30;99.90;;;;;;5051095;28;20235;-63
2023/06/20 02:21:02;;;;;;;3.38;3.28;;;23.30;99.90;;;;;;5050588;28;20207;-63
2023/06/20 02:23:30;;;;;;;1.60;1.60;;;23.30;99.90;;;;;;5050658;28;20200;-65
2023/06/20 02:26:01;;;;;;;2.72;2.63;;;23.30;99.90;;;;;;5048933;28;20207;-63
2023/06/20 02:28:31;;;;;;;1.75;1.65;;;23.30;99.90;;;;;;5050824;28;20317;-63
2023/06/20 02:30:58;;;;;;;3.63;3.53;;;23.20;99.90;;;;;;5030922;28;20219;-63
2023/06/20 02:33:26;;;;;;;1.70;1.60;;;23.20;99.90;;;;;;5046377;28;20204;-63
2023/06/20 02:35:54;;;;;;;2.10;2.00;;;23.10;99.90;;;;;;5050748;28;20724;-64
2023/06/20 02:38:21;;;;;;;1.77;1.67;;;23.20;99.90;;;;;;5050552;28;20228;-63
2023/06/20 02:40:50;;;;;;;1.80;1.70;;;23.10;99.90;;;;;;5050494;28;20206;-65
2023/06/20 02:43:17;;;;;;;1.38;1.38;;;23.10;99.90;;;;;;5048087;28;20201;-64
2023/06/20 02:45:47;;;;;;;1.40;1.40;;;23.10;99.90;;;;;;5050564;28;20199;-64
2023/06/20 02:48:26;;;;;;;1.67;1.58;;;23.00;99.90;;;;;;5050130;28;20229;-64
2023/06/20 02:51:04;;;;;;;1.63;1.60;;;22.90;99.90;;;;;;5050751;28;20207;-64
2023/06/20 02:53:37;;;;;;;1.83;1.80;;;22.90;99.90;;;;;;5050710;28;20203;-64
2023/06/20 02:56:10;;;;;;;2.72;2.63;;;22.90;99.90;;;;;;5050412;28;20616;-64
2023/06/20 02:58:39;;;;;;;3.67;3.55;;;22.90;99.90;;;;;;5050260;28;20599;-62
2023/06/20 03:01:08;;;;;;;3.30;3.10;;;22.90;99.90;;;;;;5050642;28;20286;-62
2023/06/20 03:03:38;;;;;;;6.40;6.10;;;22.90;99.90;;;;;;5050520;28;20199;-63
2023/06/20 03:06:07;;;;;;;2.33;2.22;;;23.00;99.90;;;;;;5050554;28;20206;-64
2023/06/20 03:08:35;;;;;;;2.03;1.92;;;23.00;99.90;;;;;;5050699;28;20228;-63
2023/06/20 03:11:02;;;;;;;3.88;3.78;;;23.10;99.90;;;;;;5050415;28;20591;-65
2023/06/20 03:13:29;;;;;;;2.08;1.98;;;23.00;99.90;;;;;;5050598;28;20537;-62
2023/06/20 03:15:56;;;;;;;1.40;1.40;;;23.00;99.90;;;;;;5050612;28;20223;-62
2023/06/20 03:18:24;;;;;;;1.20;1.20;;;22.90;99.90;;;;;;5050073;28;20641;-63
2023/06/20 03:20:52;;;;;;;1.30;1.30;;;22.90;99.90;;;;;;5050044;28;20364;-63
2023/06/20 03:23:19;;;;;;;1.40;1.40;;;22.80;99.90;;;;;;5050382;28;20249;-64
2023/06/20 03:25:46;;;;;;;1.40;1.40;;;22.80;99.90;;;;;;5050318;28;20291;-64
2023/06/20 03:28:13;;;;;;;2.08;1.70;;;22.70;99.90;;;;;;5050662;28;20224;-60
2023/06/20 03:30:40;;;;;;;2.00;1.80;;;22.80;99.90;;;;;;5052442;28;20208;-60
2023/06/20 03:33:06;;;;;;;2.08;1.63;;;22.90;99.90;;;;;;5053988;28;20208;-60
2023/06/20 03:35:35;;;;;;;1.50;1.40;;;23.00;99.90;;;;;;5055212;28;20215;-61
2023/06/20 03:38:02;;;;;;;1.65;1.55;;;23.00;99.90;;;;;;5052565;28;20294;-61
2023/06/20 03:40:29;;;;;;;1.50;1.50;;;23.00;99.90;;;;;;5051292;28;20218;-59
2023/06/20 03:42:55;;;;;;;1.52;1.48;;;22.90;99.90;;;;;;5051229;28;20232;-61
2023/06/20 03:45:22;;;;;;;1.27;1.27;;;22.90;99.90;;;;;;5051058;28;20204;-61
2023/06/20 03:47:49;;;;;;;1.70;1.60;;;22.90;99.90;;;;;;5050853;28;20212;-62
2023/06/20 03:50:16;;;;;;;1.30;1.30;;;22.90;99.90;;;;;;5051256;28;20208;-60
2023/06/20 03:52:44;;;;;;;1.50;1.50;;;22.80;99.90;;;;;;5055566;28;20572;-61
2023/06/20 03:55:11;;;;;;;1.60;1.50;;;22.70;99.90;;;;;;5056593;28;20210;-60
2023/06/20 03:57:38;;;;;;;1.90;1.80;;;22.70;99.90;;;;;;5056604;28;20230;-60
2023/06/20 04:00:09;;;;;;;1.50;1.40;;;22.70;99.90;;;;;;5055552;28;20311;-62
2023/06/20 04:02:36;;;;;;;1.80;1.70;;;22.70;99.90;;;;;;5056361;28;20286;-60
2023/06/20 04:05:03;;;;;;;1.67;1.58;;;22.70;99.90;;;;;;5055347;28;20210;-61
2023/06/20 04:07:31;;;;;;;2.22;2.03;;;22.80;99.90;;;;;;5054599;28;20218;-62
2023/06/20 04:09:59;;;;;;;1.90;1.80;;;22.80;99.90;;;;;;5053969;28;20294;-60
2023/06/20 04:12:26;;;;;;;1.80;1.70;;;22.60;99.90;;;;;;5054472;28;20615;-60
2023/06/20 04:14:53;;;;;;;1.65;1.55;;;22.70;99.90;;;;;;5053979;28;20206;-61
2023/06/20 04:17:20;;;;;;;1.60;1.50;;;22.70;99.90;;;;;;5063140;28;20227;-60
2023/06/20 04:19:47;;;;;;;2.17;1.80;;;22.70;99.90;;;;;;5073653;28;20233;-61
2023/06/20 04:22:14;;;;;;;1.40;1.40;;;22.70;99.90;;;;;;5065175;28;20640;-61
2023/06/20 04:24:41;;;;;;;1.60;1.50;;;22.70;99.90;;;;;;5074132;28;20233;-60
2023/06/20 04:27:10;;;;;;;1.45;1.45;;;22.60;99.90;;;;;;5074160;28;20675;-61
2023/06/20 04:29:37;;;;;;;1.60;1.50;;;22.80;99.90;;;;;;5073894;28;20255;-59
2023/06/20 04:32:04;;;;;;;2.00;1.90;;;22.80;99.90;;;;;;5061880;28;20206;-62
2023/06/20 04:34:31;;;;;;;1.48;1.48;;;22.90;99.90;;;;;;5053315;28;20212;-58
2023/06/20 04:37:01;;;;;;;1.73;1.63;;;23.00;99.90;;;;;;5054246;28;20227;-61
2023/06/20 04:39:29;;;;;;;1.30;1.30;;;23.10;99.90;;;;;;5053526;28;20231;-61
2023/06/20 04:41:55;;;;;;;1.88;1.73;;;23.10;99.90;;;;;;5053419;28;20295;-60
2023/06/20 04:44:24;;;;;;;6.57;6.28;;;23.00;99.90;;;;;;5052881;28;20204;-62
2023/06/20 04:46:50;;;;;;;4.70;4.50;;;23.00;99.90;;;;;;5053150;28;20196;-61
2023/06/20 04:49:20;;;;;;;2.50;2.30;;;23.00;99.90;;;;;;5052869;28;20226;-61
2023/06/20 04:51:47;;;;;;;1.95;1.85;;;23.00;99.90;;;;;;5052784;28;20657;-60
2023/06/20 04:54:14;;;;;;;2.20;2.10;;;22.90;99.90;;;;;;5058325;28;20207;-61
2023/06/20 04:56:41;;;;;;;3.17;1.77;;;22.90;99.90;;;;;;5053018;28;20215;-63
2023/06/20 04:59:08;;;;;;;1.50;1.50;;;22.90;99.90;;;;;;5059274;28;20215;-62
2023/06/20 05:01:37;;;;;;;2.40;2.03;;;22.90;99.90;;;;;;5064792;28;20359;-63
2023/06/20 05:04:04;;;;;;;3.08;2.97;;;23.10;99.90;;;;;;5054578;28;20204;-60
2023/06/20 05:06:31;;;;;;;1.50;1.50;;;23.10;99.90;;;;;;5055934;28;20192;-60
2023/06/20 05:08:59;;;;;;;2.25;2.05;;;23.20;99.90;;;;;;5052878;28;20713;-62
2023/06/20 05:11:26;;;;;;;1.20;1.20;;;23.30;99.90;;;;;;5052464;28;20219;-62
2023/06/20 05:13:53;;;;;;;1.30;1.30;;;23.50;99.90;;;;;;5052146;28;20204;-64
2023/06/20 05:16:20;;;;;;;1.63;1.63;;;23.50;99.90;;;;;;5053541;28;20234;-64
2023/06/20 05:18:48;;;;;;;1.60;1.50;;;23.30;99.90;;;;;;5053737;28;20263;-63
2023/06/20 05:21:15;;;;;;;1.33;1.33;;;23.20;99.90;;;;;;5053093;28;20696;-63
2023/06/20 05:23:42;;;;;;;1.80;1.70;;;23.20;99.90;;;;;;5067759;28;20231;-63
2023/06/20 05:26:09;;;;;;;1.42;1.42;;;23.10;99.90;;;;;;5056668;28;20208;-62
2023/06/20 05:28:37;;;;;;;1.42;1.42;;;23.10;99.90;;;;;;5053926;28;20224;-62
2023/06/20 05:31:04;;;;;;;1.40;1.40;;;23.20;99.90;;;;;;5052339;28;20211;-63
2023/06/20 05:33:31;;;;;;;1.40;1.40;;;23.30;99.90;;;;;;5053577;28;20643;-65
2023/06/20 05:35:59;;;;;;;1.40;1.40;;;23.40;99.90;;;;;;5052546;28;20299;-62
2023/06/20 05:40:59;;;;;;;1.48;1.48;;;23.70;99.90;;;;;;5050689;28;20211;-66
2023/06/20 05:43:26;;;;;;;1.50;1.50;;;23.90;99.90;;;;;;5054930;28;20262;-65
2023/06/20 05:45:53;;;;;;;1.40;1.40;;;24.00;99.90;;;;;;5052697;28;20215;-64
2023/06/20 05:48:23;;;;;;;1.30;1.30;;;24.10;99.90;;;;;;5052931;28;20581;-65
2023/06/20 05:50:51;;;;;;;1.52;1.48;;;24.30;99.90;;;;;;5026938;28;20215;-64
2023/06/20 05:53:20;;;;;;;1.67;1.67;;;24.50;99.90;;;;;;5031083;28;20235;-67
2023/06/20 05:55:50;;;;;;;1.58;1.50;;;24.60;99.90;;;;;;5030843;28;20212;-64
2023/06/20 05:58:17;;;;;;;1.50;1.50;;;24.60;99.90;;;;;;5030305;28;20223;-64
2023/06/20 06:00:45;;;;;;;2.67;1.77;;;24.70;99.90;;;;;;5031312;28;20344;-67
2023/06/20 06:03:12;;;;;;;1.77;1.67;;;24.80;99.90;;;;;;5030227;28;20208;-65
2023/06/20 06:05:39;;;;;;;1.70;1.60;;;24.80;99.90;;;;;;5032406;28;20816;-65
2023/06/20 06:08:06;;;;;;;1.73;1.65;;;25.00;99.90;;;;;;5032222;28;20670;-65
2023/06/20 06:10:35;;;;;;;1.50;1.40;;;25.00;99.90;;;;;;5040458;28;20709;-64
2023/06/20 06:13:01;;;;;;;1.63;1.52;;;25.20;99.90;;;;;;5053696;28;20615;-64
2023/06/20 06:15:28;;;;;;;1.40;1.40;;;25.30;99.90;;;;;;5053455;28;20216;-65
2023/06/20 06:17:55;;;;;;;1.65;1.55;;;25.40;99.90;;;;;;5051786;28;20264;-66
2023/06/20 06:20:23;;;;;;;1.55;1.55;;;25.50;99.90;;;;;;5051561;28;20224;-65
2023/06/20 06:22:50;;;;;;;1.40;1.40;;;25.50;99.90;;;;;;5051363;28;20334;-64
2023/06/20 06:25:17;;;;;;;1.65;1.55;;;25.70;99.90;;;;;;5052011;28;20310;-65
2023/06/20 06:27:46;;;;;;;1.80;1.70;;;25.80;99.90;;;;;;5052004;28;20291;-64
2023/06/20 06:30:14;;;;;;;1.50;1.50;;;26.00;99.90;;;;;;5055659;28;20220;-66
2023/06/20 06:32:42;;;;;;;1.45;1.45;;;26.00;99.90;;;;;;5056827;28;20207;-66
2023/06/20 06:35:10;;;;;;;1.52;1.42;;;26.10;99.90;;;;;;5051894;28;20205;-65
2023/06/20 06:37:40;;;;;;;1.70;1.60;;;26.20;99.90;;;;;;5051490;28;20220;-65
2023/06/20 06:40:09;;;;;;;4.65;4.38;;;26.30;99.90;;;;;;5051413;28;20235;-65
2023/06/20 06:42:36;;;;;;;1.50;1.50;;;26.50;99.90;;;;;;5051889;28;20209;-65
2023/06/20 06:45:05;;;;;;;1.90;1.80;;;26.60;99.90;;;;;;5051161;28;20688;-66
2023/06/20 06:47:34;;;;;;;1.50;1.50;;;26.70;99.90;;;;;;5052280;28;20204;-64
2023/06/20 06:50:01;;;;;;;1.70;1.60;;;26.80;99.90;;;;;;5052000;28;20290;-64
2023/06/20 06:52:29;;;;;;;1.50;1.50;;;26.90;99.90;;;;;;5053967;28;20210;-65
2023/06/20 06:54:55;;;;;;;2.13;2.05;;;26.90;99.90;;;;;;5051465;28;20206;-65
2023/06/20 06:57:22;;;;;;;1.50;1.50;;;27.00;99.90;;;;;;5051414;28;20227;-66
2023/06/20 06:59:49;;;;;;;1.80;1.70;;;27.10;99.90;;;;;;5051222;28;20227;-64
2023/06/20 07:02:17;;;;;;;1.98;1.88;;;27.00;99.90;;;;;;5051209;28;20642;-65
2023/06/20 07:04:45;;;;;;;1.90;1.80;;;27.20;99.90;;;;;;5051386;28;20265;-66
2023/06/20 07:07:12;;;;;;;1.90;1.80;;;27.30;99.90;;;;;;5052170;28;20203;-65
2023/06/20 07:09:39;;;;;;;1.70;1.60;;;27.30;99.90;;;;;;5049520;28;20234;-64
2023/06/20 07:12:07;;;;;;;1.88;1.83;;;27.40;99.90;;;;;;5033717;28;20204;-64
2023/06/20 07:14:34;;;;;;;1.48;1.48;;;27.50;99.90;;;;;;5032265;28;20421;-64
2023/06/20 07:17:01;;;;;;;2.22;2.05;;;27.50;99.90;;;;;;5031435;28;20220;-64
2023/06/20 07:19:29;;;;;;;1.90;1.80;;;27.60;99.90;;;;;;5030858;28;20235;-66
2023/06/20 07:21:56;;;;;;;1.75;1.65;;;27.60;99.90;;;;;;5031412;28;20302;-65
2023/06/20 07:24:23;;;;;;;3.33;2.13;;;27.60;99.90;;;;;;5031076;28;20205;-66
2023/06/20 07:26:50;;;;;;;2.03;1.92;;;27.60;99.90;;;;;;5031153;28;20197;-64
2023/06/20 07:29:17;;;;;;;2.05;1.90;;;27.70;99.90;;;;;;5030552;28;20231;-65
2023/06/20 07:31:43;;;;;;;3.33;3.13;;;27.80;99.90;;;;;;5031547;28;20228;-62
2023/06/20 07:34:10;;;;;;;2.45;2.35;;;27.90;99.90;;;;;;5031203;28;20215;-66
2023/06/20 07:36:38;;;;;;;2.10;2.00;;;28.20;99.90;;;;;;5034985;28;20678;-66
2023/06/20 07:39:06;;;;;;;2.40;2.30;;;28.40;99.90;;;;;;5034369;28;20239;-65
2023/06/20 07:41:33;;;;;;;2.10;2.00;;;28.60;99.90;;;;;;5034722;28;20239;-65
2023/06/20 07:43:59;;;;;;;3.05;2.85;;;28.80;99.90;;;;;;5034380;28;20621;-65
2023/06/20 07:46:26;;;;;;;1.52;1.52;;;29.00;99.90;;;;;;5035115;28;20212;-66
2023/06/20 07:48:53;;;;;;;2.67;2.58;;;29.00;99.90;;;;;;5034415;28;20302;-66
2023/06/20 07:51:21;;;;;;;2.38;2.28;;;29.10;99.90;;;;;;5034728;28;20606;-63
2023/06/20 07:53:50;;;;;;;2.03;1.92;;;29.20;99.90;;;;;;5034619;28;20581;-67
2023/06/20 07:56:16;;;;;;;2.10;2.00;;;29.40;99.90;;;;;;5035483;28;20204;-65
2023/06/20 07:58:44;;;;;;;3.05;2.95;;;29.50;99.90;;;;;;5037182;28;20236;-66
2023/06/20 08:01:12;;;;;;;2.67;2.50;;;29.60;99.90;;;;;;5034982;28;20219;-65
2023/06/20 08:03:39;;;;;;;2.95;2.85;;;29.70;99.90;;;;;;5035351;28;20303;-65
2023/06/20 08:06:06;;;;;;;2.10;2.00;;;29.70;99.90;;;;;;5039336;28;20533;-66
2023/06/20 08:08:33;;;;;;;2.00;1.90;;;29.70;99.90;;;;;;5044865;28;20208;-66
2023/06/20 08:11:02;;;;;;;2.30;2.20;;;29.80;99.90;;;;;;5037277;28;20644;-64
2023/06/20 08:13:28;;;;;;;2.60;2.50;;;29.90;99.90;;;;;;5036259;28;20220;-66
2023/06/20 08:15:55;;;;;;;1.33;1.33;;;30.00;99.90;;;;;;5036884;28;20299;-62
2023/06/20 08:18:22;;;;;;;1.30;1.30;;;30.10;99.90;;;;;;5037721;28;20227;-65
2023/06/20 08:20:50;;;;;;;1.40;1.40;;;30.10;99.90;;;;;;5035500;28;20726;-64
2023/06/20 08:23:25;;;;;;;1.60;1.50;;;30.30;99.90;;;;;;5034015;28;20204;-65
2023/06/20 08:25:53;;;;;;;1.45;1.45;;;30.40;99.90;;;;;;5034200;28;20546;-65
2023/06/20 08:28:21;;;;;;;1.80;1.70;;;30.50;99.90;;;;;;5034613;28;20617;-66
2023/06/20 08:30:48;;;;;;;1.48;1.48;;;30.70;99.90;;;;;;5044458;28;20228;-66
2023/06/20 08:33:15;;;;;;;2.08;1.98;;;30.80;99.90;;;;;;5054055;28;20216;-64
2023/06/20 08:35:42;;;;;;;2.55;1.95;;;30.80;99.90;;;;;;5053546;28;20681;-67
2023/06/20 08:38:10;;;;;;;2.17;2.08;;;30.80;99.90;;;;;;5055134;28;20224;-65
2023/06/20 08:40:37;;;;;;;2.45;1.92;;;30.80;99.90;;;;;;5053671;28;20326;-66
2023/06/20 08:43:04;;;;;;;1.90;1.80;;;30.90;99.90;;;;;;5053697;28;20214;-66
2023/06/20 08:45:32;;;;;;;1.60;1.50;;;30.90;99.90;;;;;;5052976;28;20204;-65
2023/06/20 08:47:59;;;;;;;2.10;1.90;;;31.10;99.90;;;;;;5053193;28;20200;-65
2023/06/20 08:50:26;;;;;;;2.33;2.13;;;31.20;99.90;;;;;;5053017;28;20232;-65
2023/06/20 08:52:55;;;;;;;2.20;2.10;;;31.20;99.90;;;;;;5053113;28;20246;-64
2023/06/20 08:55:22;;;;;;;1.55;1.55;;;31.30;99.90;;;;;;5053580;28;20204;-62
2023/06/20 08:57:51;;;;;;;1.67;1.58;;;31.30;99.90;;;;;;5053312;28;20224;-65
2023/06/20 09:00:20;;;;;;;1.40;1.40;;;31.40;99.90;;;;;;5053561;28;20228;-65
2023/06/20 09:02:48;;;;;;;1.40;1.38;;;31.60;99.90;;;;;;5053308;28;20204;-65
2023/06/20 09:05:15;;;;;;;1.23;1.23;;;31.70;99.90;;;;;;5053114;28;20215;-65
2023/06/20 09:07:42;;;;;;;1.30;1.30;;;31.80;99.90;;;;;;5053524;28;20688;-63
2023/06/20 09:10:11;;;;;;;1.70;1.60;;;31.80;99.90;;;;;;5047290;28;20223;-65
2023/06/20 09:12:48;;;;;;;1.45;1.40;;;31.80;99.90;;;;;;5033211;28;20206;-65
2023/06/20 09:15:16;;;;;;;1.77;1.73;;;31.90;99.90;;;;;;5034899;28;20204;-65
2023/06/20 09:17:43;;;;;;;1.58;1.48;;;31.90;99.90;;;;;;5033202;28;20226;-65
2023/06/20 09:20:13;;;;;;;1.33;1.33;;;31.90;99.90;;;;;;5032870;28;20225;-66
2023/06/20 09:22:40;;;;;;;1.73;1.70;;;32.10;99.90;;;;;;5032768;28;20654;-67
2023/06/20 09:25:09;;;;;;;1.70;1.60;;;32.20;99.90;;;;;;5032969;28;20210;-66
2023/06/20 09:27:36;;;;;;;1.35;1.30;;;32.10;99.90;;;;;;5032859;28;20211;-66
2023/06/20 09:30:04;;;;;;;1.42;1.42;;;32.30;99.90;;;;;;5033055;28;20773;-65
2023/06/20 09:32:35;;;;;;;1.30;1.30;;;32.40;99.90;;;;;;5032991;28;20243;-64
2023/06/20 09:35:03;;;;;;;1.70;1.60;;;32.50;99.90;;;;;;5033477;28;20189;-64
2023/06/20 09:37:38;;;;;;;1.33;1.33;;;32.60;99.90;;;;;;5033835;28;20228;-64
2023/06/20 09:40:10;;;;;;;2.50;1.60;;;32.80;99.90;;;;;;5038169;28;20741;-66
2023/06/20 09:42:38;;;;;;;2.97;2.60;;;32.60;99.90;;;;;;5038449;28;20205;-63
2023/06/20 09:45:06;;;;;;;1.60;1.60;;;32.50;99.90;;;;;;5032947;28;20215;-64
2023/06/20 09:47:34;;;;;;;1.55;1.52;;;32.60;99.90;;;;;;5032724;28;20203;-66
2023/06/20 09:50:05;;;;;;;1.42;1.42;;;32.70;99.90;;;;;;5032225;28;20228;-64
2023/06/20 09:52:34;;;;;;;2.17;1.60;;;32.80;99.90;;;;;;5032710;28;20207;-63
2023/06/20 09:55:08;;;;;;;1.33;1.33;;;32.90;99.90;;;;;;5032427;28;20204;-66
2023/06/20 09:57:40;;;;;;;1.70;1.70;;;33.00;99.90;;;;;;5033199;28;20235;-64
2023/06/20 10:00:13;;;;;;;1.42;1.42;;;33.00;99.90;;;;;;5053475;28;20224;-65
2023/06/20 10:02:43;;;;;;;1.60;1.50;;;33.00;99.90;;;;;;5053199;28;20234;-64
2023/06/20 10:05:11;;;;;;;2.55;1.77;;;33.10;99.90;;;;;;5051834;28;20207;-65
2023/06/20 10:07:39;;;;;;;1.80;1.70;;;33.10;99.90;;;;;;5051997;28;20226;-65
2023/06/20 10:10:07;;;;;;;1.33;1.23;;;33.00;99.90;;;;;;5051431;28;20228;-65
2023/06/20 10:12:35;;;;;;;1.58;1.58;;;33.00;99.90;;;;;;5052048;28;20215;-66
2023/06/20 10:15:03;;;;;;;2.20;2.10;;;33.10;99.90;;;;;;5052250;28;20207;-63
2023/06/20 10:17:31;;;;;;;1.70;1.70;;;33.10;99.90;;;;;;5051862;28;20226;-63
2023/06/20 10:19:59;;;;;;;1.60;1.60;;;33.00;99.90;;;;;;5051517;28;20224;-63
2023/06/20 10:22:34;;;;;;;1.67;1.60;;;32.90;99.90;;;;;;5051714;28;20224;-65
2023/06/20 10:25:12;;;;;;;1.50;1.50;;;32.90;99.90;;;;;;5051889;28;20333;-64
2023/06/20 10:27:41;;;;;;;1.98;1.88;;;32.90;99.90;;;;;;5051610;28;20188;-64
2023/06/20 10:30:09;;;;;;;1.50;1.50;;;33.10;99.90;;;;;;5051105;28;20220;-65
2023/06/20 10:32:36;;;;;;;1.83;1.73;;;33.10;99.90;;;;;;5051280;28;20215;-66
2023/06/20 10:35:09;;;;;;;1.65;1.50;;;33.30;99.90;;;;;;5051563;28;20203;-65
2023/06/20 10:37:38;;;;;;;1.70;1.60;;;33.30;99.90;;;;;;5050590;28;20215;-65
2023/06/20 10:40:09;;;;;;;1.92;1.70;;;33.40;99.90;;;;;;5030971;28;20232;-62
2023/06/20 10:42:42;;;;;;;1.83;1.50;;;33.40;99.90;;;;;;5031465;28;20208;-66
2023/06/20 10:45:26;;;;;;;1.48;1.48;;;33.30;99.90;;;;;;5031677;28;20226;-64
2023/06/20 10:47:53;;;;;;;1.42;1.35;;;33.30;99.90;;;;;;5032359;28;20235;-66
2023/06/20 10:50:21;;;;;;;1.77;1.67;;;33.10;99.90;;;;;;5031693;28;20263;-66
2023/06/20 10:52:48;;;;;;;1.70;1.60;;;33.20;99.90;;;;;;5032619;28;20230;-65
2023/06/20 10:55:21;;;;;;;1.52;1.52;;;33.30;99.90;;;;;;5034156;28;20204;-64
2023/06/20 10:57:49;;;;;;;1.60;1.50;;;33.40;99.90;;;;;;5032672;28;20239;-66
2023/06/20 11:00:18;;;;;;;1.35;1.35;;;33.40;99.90;;;;;;5031380;28;20718;-65
2023/06/20 11:02:46;;;;;;;1.50;1.50;;;33.30;99.90;;;;;;5031677;28;20239;-65
2023/06/20 11:05:13;;;;;;;1.58;1.48;;;33.50;99.90;;;;;;5031760;28;20573;-65
2023/06/20 11:07:57;;;;;;;1.73;1.63;;;33.60;99.90;;;;;;5031991;28;20223;-65
2023/06/20 11:10:29;;;;;;;1.60;1.50;;;33.60;99.90;;;;;;5035898;28;20220;-64
2023/06/20 11:12:56;;;;;;;1.40;1.40;;;33.80;99.90;;;;;;5035814;28;20292;-64
2023/06/20 11:15:26;;;;;;;1.25;1.25;;;33.80;99.90;;;;;;5043411;28;20268;-65
2023/06/20 11:17:53;;;;;;;1.73;1.70;;;34.10;99.90;;;;;;5041936;28;20204;-65
2023/06/20 11:20:23;;;;;;;1.63;1.52;;;34.10;99.90;;;;;;5036062;28;20221;-67
2023/06/20 11:22:52;;;;;;;2.67;2.53;;;33.90;99.90;;;;;;5038807;28;20262;-65
2023/06/20 11:25:28;;;;;;;1.70;1.60;;;33.70;99.90;;;;;;5036664;28;20205;-65
2023/06/20 11:27:55;;;;;;;3.67;3.58;;;33.60;99.90;;;;;;5038900;28;20193;-65
2023/06/20 11:30:26;;;;;;;1.52;1.42;;;33.60;99.70;;;;;;5036490;28;20240;-65
2023/06/20 11:33:04;;;;;;;1.50;1.45;;;33.60;99.70;;;;;;5038816;28;20208;-64
2023/06/20 11:35:49;;;;;;;1.73;1.42;;;33.80;99.90;;;;;;5036643;28;20204;-64
2023/06/20 11:38:20;;;;;;;1.45;1.40;;;34.00;99.90;;;;;;5035660;28;20216;-66
2023/06/20 11:40:51;;;;;;;1.85;1.75;;;34.30;99.90;;;;;;5064021;22;20228;-65
2023/06/20 11:43:26;;;;;;;1.55;1.45;;;34.30;99.30;;;;;;5054933;28;20210;-65
2023/06/20 11:45:58;;;;;;;1.30;1.30;;;34.30;99.00;;;;;;5055796;28;20261;-65
2023/06/20 11:48:25;;;;;;;1.55;1.55;;;34.40;99.40;;;;;;5055772;28;20557;-63
2023/06/20 11:50:57;;;;;;;2.03;1.80;;;34.40;98.80;;;;;;5056107;28;20262;-66
2023/06/20 11:53:27;;;;;;;2.00;1.85;;;34.30;98.50;;;;;;5056457;28;20583;-64
2023/06/20 11:55:57;;;;;;;1.63;1.52;;;34.30;98.60;;;;;;5057076;28;20309;-64
2023/06/20 11:58:24;;;;;;;2.58;1.77;;;34.30;98.90;;;;;;5055198;28;20228;-64
2023/06/20 12:01:04;;;;;;;2.28;2.15;;;34.50;98.30;;;;;;5054834;28;20228;-63
2023/06/20 12:03:31;;;;;;;1.98;1.88;;;34.40;97.90;;;;;;5055754;28;20199;-63
2023/06/20 12:05:59;;;;;;;1.70;1.60;;;34.20;97.40;;;;;;5056702;28;20208;-65
2023/06/20 12:08:31;;;;;;;1.80;1.70;;;34.10;98.90;;;;;;5057881;28;20200;-67
2023/06/20 12:11:01;;;;;;;3.15;3.05;;;34.10;98.80;;;;;;5056502;28;20281;-65
2023/06/20 12:13:28;;;;;;;1.60;1.50;;;34.10;98.20;;;;;;5057137;28;20292;-65
2023/06/20 12:15:56;;;;;;;1.63;1.52;;;34.10;99.00;;;;;;5055405;28;20295;-65
2023/06/20 12:18:23;;;;;;;1.70;1.60;;;34.30;99.00;;;;;;5055342;28;20224;-63
2023/06/20 12:20:50;;;;;;;1.90;1.80;;;34.30;98.50;;;;;;5053860;28;20316;-64
2023/06/20 12:23:18;;;;;;;1.67;1.58;;;34.40;98.10;;;;;;5054576;28;20208;-64
2023/06/20 12:25:45;;;;;;;1.80;1.70;;;34.40;97.60;;;;;;5055040;28;20204;-66
2023/06/20 12:28:13;;;;;;;2.35;2.25;;;34.40;97.80;;;;;;5054689;28;20295;-65
2023/06/20 12:30:40;;;;;;;2.15;2.05;;;34.40;97.50;;;;;;5054985;28;20203;-64
2023/06/20 12:33:09;;;;;;;1.70;1.60;;;34.20;97.10;;;;;;5055656;28;20220;-65
2023/06/20 12:35:36;;;;;;;1.83;1.73;;;34.20;97.90;;;;;;5051619;28;20211;-65
2023/06/20 12:38:03;;;;;;;2.05;1.85;;;34.10;97.40;;;;;;5052644;28;20311;-63
2023/06/20 12:40:30;;;;;;;1.75;1.65;;;34.30;97.80;;;;;;5051767;28;20206;-62
2023/06/20 12:42:57;;;;;;;1.60;1.50;;;34.50;98.40;;;;;;5052942;28;20596;-65
2023/06/20 12:45:25;;;;;;;2.60;1.80;;;34.70;97.70;;;;;;5053538;28;20706;-64
2023/06/20 12:47:52;;;;;;;1.70;1.60;;;34.80;98.00;;;;;;5053641;28;20689;-64
2023/06/20 12:50:19;;;;;;;1.80;1.70;;;35.00;98.00;;;;;;5054013;28;20208;-64
2023/06/20 12:52:46;;;;;;;1.85;1.75;;;34.90;97.20;;;;;;5053671;28;20713;-61
2023/06/20 12:55:13;;;;;;;3.33;1.85;;;34.70;97.00;;;;;;5053788;28;20215;-64
2023/06/20 12:57:40;;;;;;;2.00;1.90;;;34.50;97.10;;;;;;5053513;28;20343;-64